sensor_id;sensor_type;location;lat;lon;timestamp;pressure;altitude;pressure_sealevel;temperature;humidity
5595;BME280;1003;48.002;7.788;2023-08-21T00:02:17;99374.38;;;22.54;100.00
5595;BME280;1003;48.002;7.788;2023-08-21T00:04:44;99369.19;;;22.56;100.00
5595;BME280;1003;48.002;7.788;2023-08-21T00:07:12;99455.03;;;22.47;100.00
5595;BME280;1003;48.002;7.788;2023-08-21T00:09:39;99457.22;;;22.39;100.00
5595;BME280;1003;48.002;7.788;2023-08-21T00:12:07;99457.53;;;22.33;100.00
5595;BME280;1003;48.002;7.788;2023-08-21T00:14:35;99467.03;;;22.31;100.00
5595;BME280;1003;48.002;7.788;2023-08-21T00:17:03;99473.31;;;22.25;100.00
5595;BME280;1003;48.002;7.788;2023-08-21T00:19:30;99473.56;;;22.20;100.00
5595;BME280;1003;48.002;7.788;2023-08-21T00:21:57;99481.47;;;22.16;100.00
5595;BME280;1003;48.002;7.788;2023-08-21T00:24:24;99509.72;;;22.14;100.00
5595;BME280;1003;48.002;7.788;2023-08-21T00:26:51;99486.16;;;22.08;100.00
5595;BME280;1003;48.002;7.788;2023-08-21T00:29:18;99498.28;;;22.04;100.00
5595;BME280;1003;48.002;7.788;2023-08-21T00:31:46;99497.47;;;22.04;100.00
5595;BME280;1003;48.002;7.788;2023-08-21T00:34:14;99494.06;;;22.03;100.00
5595;BME280;1003;48.002;7.788;2023-08-21T00:36:41;99513.50;;;22.07;100.00
5595;BME280;1003;48.002;7.788;2023-08-21T00:39:08;99513.34;;;22.10;100.00
5595;BME280;1003;48.002;7.788;2023-08-21T00:41:34;99518.47;;;22.10;100.00
5595;BME280;1003;48.002;7.788;2023-08-21T00:44:02;99524.41;;;22.11;100.00
5595;BME280;1003;48.002;7.788;2023-08-21T00:46:30;99538.94;;;22.10;100.00
5595;BME280;1003;48.002;7.788;2023-08-21T00:48:59;99539.84;;;22.09;100.00
5595;BME280;1003;48.002;7.788;2023-08-21T00:51:26;99551.81;;;22.09;100.00
5595;BME280;1003;48.002;7.788;2023-08-21T00:53:53;99550.97;;;22.08;100.00
5595;BME280;1003;48.002;7.788;2023-08-21T00:56:20;99557.84;;;22.08;100.00
5595;BME280;1003;48.002;7.788;2023-08-21T00:58:47;99572.38;;;22.07;100.00
5595;BME280;1003;48.002;7.788;2023-08-21T01:01:17;99572.44;;;22.06;100.00
5595;BME280;1003;48.002;7.788;2023-08-21T01:03:44;99573.44;;;22.03;100.00
5595;BME280;1003;48.002;7.788;2023-08-21T01:06:13;99564.84;;;22.04;100.00
5595;BME280;1003;48.002;7.788;2023-08-21T01:08:49;99579.97;;;22.09;100.00
5595;BME280;1003;48.002;7.788;2023-08-21T01:11:24;99590.75;;;22.15;100.00
5595;BME280;1003;48.002;7.788;2023-08-21T01:14:01;99583.56;;;22.22;100.00
5595;BME280;1003;48.002;7.788;2023-08-21T01:16:31;99589.88;;;22.32;100.00
5595;BME280;1003;48.002;7.788;2023-08-21T01:19:01;99598.09;;;22.39;100.00
5595;BME280;1003;48.002;7.788;2023-08-21T01:21:32;99590.09;;;22.45;100.00
5595;BME280;1003;48.002;7.788;2023-08-21T01:24:00;99589.75;;;22.51;100.00
5595;BME280;1003;48.002;7.788;2023-08-21T01:26:27;99587.94;;;22.53;100.00
5595;BME280;1003;48.002;7.788;2023-08-21T01:28:54;99575.13;;;22.53;100.00
5595;BME280;1003;48.002;7.788;2023-08-21T01:31:28;99559.84;;;22.51;100.00
5595;BME280;1003;48.002;7.788;2023-08-21T01:34:01;99546.88;;;22.39;100.00
5595;BME280;1003;48.002;7.788;2023-08-21T01:36:31;99565.91;;;22.33;100.00
5595;BME280;1003;48.002;7.788;2023-08-21T01:39:00;99548.06;;;22.32;100.00
5595;BME280;1003;48.002;7.788;2023-08-21T01:41:27;99544.53;;;22.34;100.00
5595;BME280;1003;48.002;7.788;2023-08-21T01:43:54;99539.56;;;22.31;100.00
5595;BME280;1003;48.002;7.788;2023-08-21T01:46:22;99528.41;;;22.32;100.00
5595;BME280;1003;48.002;7.788;2023-08-21T01:48:49;99533.63;;;22.31;100.00
5595;BME280;1003;48.002;7.788;2023-08-21T01:53:42;99530.88;;;22.18;100.00
5595;BME280;1003;48.002;7.788;2023-08-21T01:56:11;99526.44;;;22.04;100.00
5595;BME280;1003;48.002;7.788;2023-08-21T01:58:38;99520.22;;;21.92;100.00
5595;BME280;1003;48.002;7.788;2023-08-21T02:01:05;99518.31;;;21.80;100.00
5595;BME280;1003;48.002;7.788;2023-08-21T02:03:32;99515.81;;;21.61;100.00
5595;BME280;1003;48.002;7.788;2023-08-21T02:05:59;99518.59;;;21.57;100.00
5595;BME280;1003;48.002;7.788;2023-08-21T02:08:31;99515.69;;;21.47;100.00
5595;BME280;1003;48.002;7.788;2023-08-21T02:10:58;99514.25;;;21.41;100.00
5595;BME280;1003;48.002;7.788;2023-08-21T02:13:27;99507.16;;;21.29;100.00
5595;BME280;1003;48.002;7.788;2023-08-21T02:15:54;99514.00;;;21.29;100.00
5595;BME280;1003;48.002;7.788;2023-08-21T02:18:21;99514.91;;;21.28;100.00
5595;BME280;1003;48.002;7.788;2023-08-21T02:20:48;99514.09;;;21.27;100.00
5595;BME280;1003;48.002;7.788;2023-08-21T02:23:15;99510.84;;;21.23;100.00
5595;BME280;1003;48.002;7.788;2023-08-21T02:25:42;99510.84;;;21.23;100.00
5595;BME280;1003;48.002;7.788;2023-08-21T02:28:09;99523.78;;;21.20;100.00
5595;BME280;1003;48.002;7.788;2023-08-21T02:30:40;99525.75;;;21.15;100.00
5595;BME280;1003;48.002;7.788;2023-08-21T02:33:07;99531.72;;;21.14;100.00
5595;BME280;1003;48.002;7.788;2023-08-21T02:35:34;99536.09;;;21.12;100.00
5595;BME280;1003;48.002;7.788;2023-08-21T02:38:01;99511.16;;;21.17;100.00
5595;BME280;1003;48.002;7.788;2023-08-21T02:40:28;99504.06;;;21.05;100.00
5595;BME280;1003;48.002;7.788;2023-08-21T02:42:56;99511.06;;;21.02;100.00
5595;BME280;1003;48.002;7.788;2023-08-21T02:45:23;99508.63;;;20.98;100.00
5595;BME280;1003;48.002;7.788;2023-08-21T02:47:51;99529.31;;;20.94;100.00
5595;BME280;1003;48.002;7.788;2023-08-21T02:50:19;99521.69;;;20.92;100.00
5595;BME280;1003;48.002;7.788;2023-08-21T02:52:46;99528.63;;;20.90;100.00
5595;BME280;1003;48.002;7.788;2023-08-21T02:55:13;99556.72;;;20.90;100.00
5595;BME280;1003;48.002;7.788;2023-08-21T02:57:41;99559.28;;;20.90;100.00
5595;BME280;1003;48.002;7.788;2023-08-21T03:00:09;99560.09;;;20.91;100.00
5595;BME280;1003;48.002;7.788;2023-08-21T03:02:36;99568.69;;;20.90;100.00
5595;BME280;1003;48.002;7.788;2023-08-21T03:05:05;99572.97;;;20.89;100.00
5595;BME280;1003;48.002;7.788;2023-08-21T03:07:35;99584.72;;;20.93;100.00
5595;BME280;1003;48.002;7.788;2023-08-21T03:10:02;99587.09;;;20.96;100.00
5595;BME280;1003;48.002;7.788;2023-08-21T03:12:29;99586.78;;;21.04;100.00
5595;BME280;1003;48.002;7.788;2023-08-21T03:14:56;99546.41;;;21.11;100.00
5595;BME280;1003;48.002;7.788;2023-08-21T03:17:24;99550.59;;;21.12;100.00
5595;BME280;1003;48.002;7.788;2023-08-21T03:19:51;99556.69;;;21.09;100.00
5595;BME280;1003;48.002;7.788;2023-08-21T03:22:19;99568.63;;;21.09;100.00
5595;BME280;1003;48.002;7.788;2023-08-21T03:24:46;99572.19;;;21.06;100.00
5595;BME280;1003;48.002;7.788;2023-08-21T03:27:15;99575.63;;;21.05;100.00
5595;BME280;1003;48.002;7.788;2023-08-21T03:29:43;99579.84;;;21.06;100.00
5595;BME280;1003;48.002;7.788;2023-08-21T03:32:14;99584.13;;;21.06;100.00
5595;BME280;1003;48.002;7.788;2023-08-21T03:34:42;99590.97;;;21.05;100.00
5595;BME280;1003;48.002;7.788;2023-08-21T03:37:09;99595.19;;;21.06;100.00
5595;BME280;1003;48.002;7.788;2023-08-21T03:39:37;99601.13;;;21.07;100.00
5595;BME280;1003;48.002;7.788;2023-08-21T03:42:05;99605.19;;;21.11;100.00
5595;BME280;1003;48.002;7.788;2023-08-21T03:44:32;99614.44;;;21.13;100.00
5595;BME280;1003;48.002;7.788;2023-08-21T03:46:59;99593.94;;;21.15;100.00
5595;BME280;1003;48.002;7.788;2023-08-21T03:49:26;99603.91;;;21.19;100.00
5595;BME280;1003;48.002;7.788;2023-08-21T03:51:53;99625.28;;;21.18;100.00
5595;BME280;1003;48.002;7.788;2023-08-21T03:54:20;99622.63;;;21.20;100.00
5595;BME280;1003;48.002;7.788;2023-08-21T03:56:49;99642.25;;;21.19;100.00
5595;BME280;1003;48.002;7.788;2023-08-21T03:59:16;99617.59;;;21.18;100.00
5595;BME280;1003;48.002;7.788;2023-08-21T04:01:43;99638.44;;;21.11;100.00
5595;BME280;1003;48.002;7.788;2023-08-21T04:04:10;99648.97;;;21.03;100.00
5595;BME280;1003;48.002;7.788;2023-08-21T04:06:37;99664.53;;;20.98;100.00
5595;BME280;1003;48.002;7.788;2023-08-21T04:09:04;99669.78;;;20.95;100.00
5595;BME280;1003;48.002;7.788;2023-08-21T04:11:32;99681.88;;;20.92;100.00
5595;BME280;1003;48.002;7.788;2023-08-21T04:14:01;99666.81;;;20.86;100.00
5595;BME280;1003;48.002;7.788;2023-08-21T04:16:28;99685.09;;;20.77;100.00
5595;BME280;1003;48.002;7.788;2023-08-21T04:18:56;99684.47;;;20.71;100.00
5595;BME280;1003;48.002;7.788;2023-08-21T04:21:23;99707.59;;;20.68;100.00
5595;BME280;1003;48.002;7.788;2023-08-21T04:23:50;99723.06;;;20.65;100.00
5595;BME280;1003;48.002;7.788;2023-08-21T04:26:17;99747.78;;;20.65;100.00
5595;BME280;1003;48.002;7.788;2023-08-21T04:28:45;99741.13;;;20.61;100.00
5595;BME280;1003;48.002;7.788;2023-08-21T04:31:13;99731.06;;;20.58;100.00
5595;BME280;1003;48.002;7.788;2023-08-21T04:33:40;99762.66;;;20.55;100.00
5595;BME280;1003;48.002;7.788;2023-08-21T04:36:08;99773.72;;;20.56;100.00
5595;BME280;1003;48.002;7.788;2023-08-21T04:38:40;99793.06;;;20.61;100.00
5595;BME280;1003;48.002;7.788;2023-08-21T04:41:08;99805.06;;;20.59;100.00
5595;BME280;1003;48.002;7.788;2023-08-21T04:43:35;99814.38;;;20.60;100.00
5595;BME280;1003;48.002;7.788;2023-08-21T04:46:04;99833.03;;;20.62;100.00
5595;BME280;1003;48.002;7.788;2023-08-21T04:48:32;99837.19;;;20.65;100.00
5595;BME280;1003;48.002;7.788;2023-08-21T04:50:59;99835.34;;;20.68;100.00
5595;BME280;1003;48.002;7.788;2023-08-21T04:53:26;99848.75;;;20.74;100.00
5595;BME280;1003;48.002;7.788;2023-08-21T04:55:53;99870.84;;;20.75;100.00
5595;BME280;1003;48.002;7.788;2023-08-21T04:58:20;99885.28;;;20.76;100.00
5595;BME280;1003;48.002;7.788;2023-08-21T05:00:47;99901.44;;;20.76;100.00
5595;BME280;1003;48.002;7.788;2023-08-21T05:03:14;99914.09;;;20.79;100.00
5595;BME280;1003;48.002;7.788;2023-08-21T05:05:51;99867.22;;;20.80;100.00
5595;BME280;1003;48.002;7.788;2023-08-21T05:08:18;99896.84;;;20.84;100.00
5595;BME280;1003;48.002;7.788;2023-08-21T05:10:45;99926.31;;;20.93;100.00
5595;BME280;1003;48.002;7.788;2023-08-21T05:13:12;99933.69;;;21.01;100.00
5595;BME280;1003;48.002;7.788;2023-08-21T05:15:42;99953.88;;;21.07;100.00
5595;BME280;1003;48.002;7.788;2023-08-21T05:18:09;99963.00;;;21.12;100.00
5595;BME280;1003;48.002;7.788;2023-08-21T05:20:36;99977.34;;;21.16;100.00
5595;BME280;1003;48.002;7.788;2023-08-21T05:23:05;99990.59;;;21.26;100.00
5595;BME280;1003;48.002;7.788;2023-08-21T05:25:32;99997.88;;;21.35;100.00
5595;BME280;1003;48.002;7.788;2023-08-21T05:27:59;100008.56;;;21.45;100.00
5595;BME280;1003;48.002;7.788;2023-08-21T05:30:26;100028.47;;;21.59;100.00
5595;BME280;1003;48.002;7.788;2023-08-21T05:32:53;100031.47;;;21.68;100.00
5595;BME280;1003;48.002;7.788;2023-08-21T05:35:20;100055.91;;;21.75;100.00
5595;BME280;1003;48.002;7.788;2023-08-21T05:37:47;100044.66;;;21.80;100.00
5595;BME280;1003;48.002;7.788;2023-08-21T05:40:16;100048.69;;;21.85;100.00
5595;BME280;1003;48.002;7.788;2023-08-21T05:42:43;99991.91;;;21.96;100.00
5595;BME280;1003;48.002;7.788;2023-08-21T05:45:10;100030.53;;;22.10;100.00
5595;BME280;1003;48.002;7.788;2023-08-21T05:47:37;99909.91;;;22.35;100.00
5595;BME280;1003;48.002;7.788;2023-08-21T05:50:05;99946.19;;;22.62;100.00
5595;BME280;1003;48.002;7.788;2023-08-21T05:52:33;99971.50;;;22.87;100.00
5595;BME280;1003;48.002;7.788;2023-08-21T05:54:59;99960.50;;;23.02;100.00
5595;BME280;1003;48.002;7.788;2023-08-21T05:57:28;99931.19;;;23.25;100.00
5595;BME280;1003;48.002;7.788;2023-08-21T05:59:55;99989.53;;;23.55;100.00
5595;BME280;1003;48.002;7.788;2023-08-21T06:02:22;99943.44;;;24.02;100.00
5595;BME280;1003;48.002;7.788;2023-08-21T06:04:49;99938.41;;;24.48;100.00
5595;BME280;1003;48.002;7.788;2023-08-21T06:07:16;99932.78;;;24.87;100.00
5595;BME280;1003;48.002;7.788;2023-08-21T06:09:43;99931.41;;;24.96;100.00
5595;BME280;1003;48.002;7.788;2023-08-21T06:12:10;99942.34;;;25.30;100.00
5595;BME280;1003;48.002;7.788;2023-08-21T06:14:38;99946.59;;;25.59;100.00
5595;BME280;1003;48.002;7.788;2023-08-21T06:17:05;99981.97;;;26.27;100.00
5595;BME280;1003;48.002;7.788;2023-08-21T06:19:32;99929.53;;;26.68;100.00
5595;BME280;1003;48.002;7.788;2023-08-21T06:21:59;99987.22;;;27.07;100.00
5595;BME280;1003;48.002;7.788;2023-08-21T06:24:26;99979.28;;;27.23;100.00
5595;BME280;1003;48.002;7.788;2023-08-21T06:26:54;100096.84;;;27.93;100.00
5595;BME280;1003;48.002;7.788;2023-08-21T06:29:21;100126.31;;;28.42;100.00
5595;BME280;1003;48.002;7.788;2023-08-21T06:31:49;100154.84;;;28.28;100.00
5595;BME280;1003;48.002;7.788;2023-08-21T06:34:16;100159.91;;;27.91;100.00
5595;BME280;1003;48.002;7.788;2023-08-21T06:36:43;100158.81;;;27.68;100.00
5595;BME280;1003;48.002;7.788;2023-08-21T06:39:10;100158.06;;;27.66;100.00
5595;BME280;1003;48.002;7.788;2023-08-21T06:41:37;100187.19;;;28.08;100.00
5595;BME280;1003;48.002;7.788;2023-08-21T06:44:04;100174.94;;;28.37;100.00
5595;BME280;1003;48.002;7.788;2023-08-21T06:46:31;100183.97;;;28.81;100.00
5595;BME280;1003;48.002;7.788;2023-08-21T06:49:00;100191.56;;;29.32;100.00
5595;BME280;1003;48.002;7.788;2023-08-21T06:51:27;100166.75;;;29.29;100.00
5595;BME280;1003;48.002;7.788;2023-08-21T06:53:54;100156.19;;;29.43;100.00
5595;BME280;1003;48.002;7.788;2023-08-21T06:56:21;100153.59;;;29.43;100.00
5595;BME280;1003;48.002;7.788;2023-08-21T06:58:48;100135.94;;;29.48;100.00
5595;BME280;1003;48.002;7.788;2023-08-21T07:01:15;100127.44;;;29.35;100.00
5595;BME280;1003;48.002;7.788;2023-08-21T07:03:42;100123.22;;;29.45;100.00
5595;BME280;1003;48.002;7.788;2023-08-21T07:06:11;100112.19;;;29.19;100.00
5595;BME280;1003;48.002;7.788;2023-08-21T07:08:38;100119.63;;;29.24;100.00
5595;BME280;1003;48.002;7.788;2023-08-21T07:11:06;100108.97;;;29.16;100.00
5595;BME280;1003;48.002;7.788;2023-08-21T07:13:35;100115.47;;;29.45;100.00
5595;BME280;1003;48.002;7.788;2023-08-21T07:16:03;100088.13;;;29.06;100.00
5595;BME280;1003;48.002;7.788;2023-08-21T07:18:32;100100.38;;;29.39;100.00
5595;BME280;1003;48.002;7.788;2023-08-21T07:21:00;100099.97;;;29.57;100.00
5595;BME280;1003;48.002;7.788;2023-08-21T07:23:28;100084.94;;;29.95;100.00
5595;BME280;1003;48.002;7.788;2023-08-21T07:25:57;100087.69;;;30.16;100.00
5595;BME280;1003;48.002;7.788;2023-08-21T07:28:24;100083.66;;;30.23;100.00
5595;BME280;1003;48.002;7.788;2023-08-21T07:30:55;100074.00;;;30.25;100.00
5595;BME280;1003;48.002;7.788;2023-08-21T07:33:22;100081.19;;;30.11;100.00
5595;BME280;1003;48.002;7.788;2023-08-21T07:35:57;100068.94;;;30.13;100.00
5595;BME280;1003;48.002;7.788;2023-08-21T07:38:24;100065.97;;;30.06;100.00
5595;BME280;1003;48.002;7.788;2023-08-21T07:41:03;100059.28;;;30.15;100.00
5595;BME280;1003;48.002;7.788;2023-08-21T07:43:31;100050.41;;;29.84;100.00
5595;BME280;1003;48.002;7.788;2023-08-21T07:46:02;100067.22;;;30.68;100.00
5595;BME280;1003;48.002;7.788;2023-08-21T07:48:29;100052.13;;;30.50;100.00
5595;BME280;1003;48.002;7.788;2023-08-21T07:50:56;100042.06;;;30.68;100.00
5595;BME280;1003;48.002;7.788;2023-08-21T07:53:24;100020.59;;;29.78;100.00
5595;BME280;1003;48.002;7.788;2023-08-21T07:55:53;100029.41;;;29.53;100.00
5595;BME280;1003;48.002;7.788;2023-08-21T07:58:20;100039.31;;;29.70;100.00
5595;BME280;1003;48.002;7.788;2023-08-21T08:00:47;100031.19;;;29.64;100.00
5595;BME280;1003;48.002;7.788;2023-08-21T08:03:15;100018.44;;;29.49;100.00
5595;BME280;1003;48.002;7.788;2023-08-21T08:05:42;100014.44;;;29.45;100.00
5595;BME280;1003;48.002;7.788;2023-08-21T08:08:09;100073.63;;;29.27;100.00
5595;BME280;1003;48.002;7.788;2023-08-21T08:10:38;99808.84;;;29.46;100.00
5595;BME280;1003;48.002;7.788;2023-08-21T08:13:07;99792.69;;;29.65;100.00
5595;BME280;1003;48.002;7.788;2023-08-21T08:15:35;99799.66;;;29.42;100.00
5595;BME280;1003;48.002;7.788;2023-08-21T08:18:03;99802.50;;;29.94;100.00
5595;BME280;1003;48.002;7.788;2023-08-21T08:20:31;99801.84;;;30.54;100.00
5595;BME280;1003;48.002;7.788;2023-08-21T08:22:58;99787.09;;;30.13;100.00
5595;BME280;1003;48.002;7.788;2023-08-21T08:25:25;99790.63;;;30.12;100.00
5595;BME280;1003;48.002;7.788;2023-08-21T08:27:52;99799.97;;;30.36;100.00
5595;BME280;1003;48.002;7.788;2023-08-21T08:30:21;99797.22;;;30.37;100.00
5595;BME280;1003;48.002;7.788;2023-08-21T08:32:49;99789.63;;;30.45;100.00
5595;BME280;1003;48.002;7.788;2023-08-21T08:35:16;99778.72;;;30.10;100.00
5595;BME280;1003;48.002;7.788;2023-08-21T08:37:43;99797.50;;;30.02;100.00
5595;BME280;1003;48.002;7.788;2023-08-21T08:40:12;99797.22;;;29.84;100.00
5595;BME280;1003;48.002;7.788;2023-08-21T08:42:39;99794.88;;;30.13;100.00
5595;BME280;1003;48.002;7.788;2023-08-21T08:45:07;99788.81;;;30.24;100.00
5595;BME280;1003;48.002;7.788;2023-08-21T08:47:36;99784.06;;;29.97;100.00
5595;BME280;1003;48.002;7.788;2023-08-21T08:50:05;99782.22;;;29.67;100.00
5595;BME280;1003;48.002;7.788;2023-08-21T08:52:36;99791.63;;;29.68;100.00
5595;BME280;1003;48.002;7.788;2023-08-21T08:55:04;99781.63;;;29.63;100.00
5595;BME280;1003;48.002;7.788;2023-08-21T08:57:33;99783.94;;;29.77;100.00
5595;BME280;1003;48.002;7.788;2023-08-21T09:00:00;99787.16;;;29.59;100.00
5595;BME280;1003;48.002;7.788;2023-08-21T09:02:29;99784.69;;;29.57;100.00
5595;BME280;1003;48.002;7.788;2023-08-21T09:04:57;99782.41;;;29.75;100.00
5595;BME280;1003;48.002;7.788;2023-08-21T09:07:25;99770.63;;;30.03;100.00
5595;BME280;1003;48.002;7.788;2023-08-21T09:09:52;99769.31;;;30.09;100.00
5595;BME280;1003;48.002;7.788;2023-08-21T09:12:20;99764.28;;;29.96;100.00
5595;BME280;1003;48.002;7.788;2023-08-21T09:14:48;99758.88;;;29.99;100.00
5595;BME280;1003;48.002;7.788;2023-08-21T09:17:15;99755.06;;;29.82;100.00
5595;BME280;1003;48.002;7.788;2023-08-21T09:19:43;99758.50;;;30.03;100.00
5595;BME280;1003;48.002;7.788;2023-08-21T09:22:14;99753.53;;;30.12;100.00
5595;BME280;1003;48.002;7.788;2023-08-21T09:25:00;99761.53;;;30.09;100.00
5595;BME280;1003;48.002;7.788;2023-08-21T09:27:30;99758.78;;;29.89;100.00
5595;BME280;1003;48.002;7.788;2023-08-21T09:29:57;99761.09;;;29.71;100.00
5595;BME280;1003;48.002;7.788;2023-08-21T09:32:24;99751.84;;;29.90;100.00
5595;BME280;1003;48.002;7.788;2023-08-21T09:34:51;99766.25;;;30.15;100.00
5595;BME280;1003;48.002;7.788;2023-08-21T09:37:20;99761.38;;;29.89;100.00
5595;BME280;1003;48.002;7.788;2023-08-21T09:39:47;99767.69;;;29.96;100.00
5595;BME280;1003;48.002;7.788;2023-08-21T09:42:14;99777.97;;;30.19;100.00
5595;BME280;1003;48.002;7.788;2023-08-21T09:44:42;99779.00;;;30.48;100.00
5595;BME280;1003;48.002;7.788;2023-08-21T09:47:11;99767.06;;;30.67;100.00
5595;BME280;1003;48.002;7.788;2023-08-21T09:49:39;99755.16;;;30.85;100.00
5595;BME280;1003;48.002;7.788;2023-08-21T09:52:08;99751.72;;;30.75;100.00
5595;BME280;1003;48.002;7.788;2023-08-21T09:54:38;99750.06;;;30.74;100.00
5595;BME280;1003;48.002;7.788;2023-08-21T09:57:06;99741.47;;;30.52;100.00
5595;BME280;1003;48.002;7.788;2023-08-21T09:59:33;99740.25;;;30.26;100.00
5595;BME280;1003;48.002;7.788;2023-08-21T10:02:00;99732.69;;;30.44;100.00
5595;BME280;1003;48.002;7.788;2023-08-21T10:04:34;99735.25;;;30.65;100.00
5595;BME280;1003;48.002;7.788;2023-08-21T10:07:07;99733.84;;;30.61;100.00
5595;BME280;1003;48.002;7.788;2023-08-21T10:09:36;99728.50;;;30.52;100.00
5595;BME280;1003;48.002;7.788;2023-08-21T10:12:06;99724.19;;;30.63;100.00
5595;BME280;1003;48.002;7.788;2023-08-21T10:14:36;99718.28;;;30.61;100.00
5595;BME280;1003;48.002;7.788;2023-08-21T10:17:05;99708.03;;;30.59;100.00
5595;BME280;1003;48.002;7.788;2023-08-21T10:19:35;99713.72;;;30.74;100.00
5595;BME280;1003;48.002;7.788;2023-08-21T10:22:02;99707.19;;;30.79;100.00
5595;BME280;1003;48.002;7.788;2023-08-21T10:24:36;99701.19;;;30.89;100.00
5595;BME280;1003;48.002;7.788;2023-08-21T10:27:06;99701.50;;;31.05;100.00
5595;BME280;1003;48.002;7.788;2023-08-21T10:29:34;99694.44;;;31.17;100.00
5595;BME280;1003;48.002;7.788;2023-08-21T10:32:04;99691.94;;;31.15;100.00
5595;BME280;1003;48.002;7.788;2023-08-21T10:34:33;99687.19;;;31.10;100.00
5595;BME280;1003;48.002;7.788;2023-08-21T10:37:08;99689.56;;;30.83;100.00
5595;BME280;1003;48.002;7.788;2023-08-21T10:39:38;99685.25;;;31.03;100.00
5595;BME280;1003;48.002;7.788;2023-08-21T10:42:09;99676.06;;;30.89;100.00
5595;BME280;1003;48.002;7.788;2023-08-21T10:44:53;99670.47;;;30.84;100.00
5595;BME280;1003;48.002;7.788;2023-08-21T10:47:32;99671.13;;;30.86;100.00
5595;BME280;1003;48.002;7.788;2023-08-21T10:50:03;99672.91;;;30.86;100.00
5595;BME280;1003;48.002;7.788;2023-08-21T10:52:36;99676.09;;;31.18;100.00
5595;BME280;1003;48.002;7.788;2023-08-21T10:55:05;99657.84;;;31.39;100.00
5595;BME280;1003;48.002;7.788;2023-08-21T10:57:34;99671.75;;;31.48;100.00
5595;BME280;1003;48.002;7.788;2023-08-21T11:00:04;99670.69;;;31.60;100.00
5595;BME280;1003;48.002;7.788;2023-08-21T11:02:33;99655.50;;;31.55;100.00
5595;BME280;1003;48.002;7.788;2023-08-21T11:05:01;99661.38;;;31.57;100.00
5595;BME280;1003;48.002;7.788;2023-08-21T11:07:29;99656.97;;;31.68;100.00
5595;BME280;1003;48.002;7.788;2023-08-21T11:09:56;99653.81;;;31.93;100.00
5595;BME280;1003;48.002;7.788;2023-08-21T11:12:24;99653.09;;;32.10;100.00
5595;BME280;1003;48.002;7.788;2023-08-21T11:14:53;99639.81;;;32.13;100.00
5595;BME280;1003;48.002;7.788;2023-08-21T11:17:20;99636.03;;;31.88;100.00
5595;BME280;1003;48.002;7.788;2023-08-21T11:19:49;99640.31;;;31.60;100.00
5595;BME280;1003;48.002;7.788;2023-08-21T11:22:17;99634.00;;;31.63;100.00
5595;BME280;1003;48.002;7.788;2023-08-21T11:24:46;99639.47;;;31.89;100.00
5595;BME280;1003;48.002;7.788;2023-08-21T11:27:16;99642.41;;;32.13;100.00
5595;BME280;1003;48.002;7.788;2023-08-21T11:29:46;99643.63;;;32.19;100.00
5595;BME280;1003;48.002;7.788;2023-08-21T11:32:17;99639.41;;;32.08;100.00
5595;BME280;1003;48.002;7.788;2023-08-21T11:34:50;99630.34;;;32.12;100.00
5595;BME280;1003;48.002;7.788;2023-08-21T11:37:19;99632.41;;;32.19;100.00
5595;BME280;1003;48.002;7.788;2023-08-21T11:39:50;99623.19;;;32.24;100.00
5595;BME280;1003;48.002;7.788;2023-08-21T11:42:20;99622.69;;;32.11;100.00
5595;BME280;1003;48.002;7.788;2023-08-21T11:44:51;99620.94;;;32.02;100.00
5595;BME280;1003;48.002;7.788;2023-08-21T11:47:22;99623.50;;;32.11;100.00
5595;BME280;1003;48.002;7.788;2023-08-21T11:49:50;99618.47;;;32.00;100.00
5595;BME280;1003;48.002;7.788;2023-08-21T11:52:20;99621.09;;;32.00;100.00
5595;BME280;1003;48.002;7.788;2023-08-21T11:54:49;99607.63;;;32.14;100.00
5595;BME280;1003;48.002;7.788;2023-08-21T11:57:17;99615.47;;;32.32;100.00
5595;BME280;1003;48.002;7.788;2023-08-21T11:59:49;99606.19;;;32.30;100.00
5595;BME280;1003;48.002;7.788;2023-08-21T12:02:21;99596.97;;;32.45;100.00
5595;BME280;1003;48.002;7.788;2023-08-21T12:04:52;99595.41;;;32.52;100.00
5595;BME280;1003;48.002;7.788;2023-08-21T12:07:21;99594.44;;;32.53;100.00
5595;BME280;1003;48.002;7.788;2023-08-21T12:09:48;99585.22;;;32.59;100.00
5595;BME280;1003;48.002;7.788;2023-08-21T12:12:16;99582.84;;;32.65;100.00
5595;BME280;1003;48.002;7.788;2023-08-21T12:14:43;99582.19;;;32.63;100.00
5595;BME280;1003;48.002;7.788;2023-08-21T12:17:10;99572.78;;;32.35;100.00
5595;BME280;1003;48.002;7.788;2023-08-21T12:19:38;99568.84;;;32.21;100.00
5595;BME280;1003;48.002;7.788;2023-08-21T12:22:05;99573.47;;;32.27;100.00
5595;BME280;1003;48.002;7.788;2023-08-21T12:24:32;99579.47;;;32.37;100.00
5595;BME280;1003;48.002;7.788;2023-08-21T12:26:59;99561.97;;;32.30;100.00
5595;BME280;1003;48.002;7.788;2023-08-21T12:29:27;99566.09;;;32.50;100.00
5595;BME280;1003;48.002;7.788;2023-08-21T12:31:56;99563.00;;;32.64;100.00
5595;BME280;1003;48.002;7.788;2023-08-21T12:34:23;99553.72;;;32.62;100.00
5595;BME280;1003;48.002;7.788;2023-08-21T12:36:52;99553.88;;;32.78;100.00
5595;BME280;1003;48.002;7.788;2023-08-21T12:39:19;99557.78;;;32.64;100.00
5595;BME280;1003;48.002;7.788;2023-08-21T12:41:47;99547.00;;;32.59;100.00
5595;BME280;1003;48.002;7.788;2023-08-21T12:44:14;99553.41;;;32.65;100.00
5595;BME280;1003;48.002;7.788;2023-08-21T12:46:41;99547.97;;;32.76;100.00
5595;BME280;1003;48.002;7.788;2023-08-21T12:49:08;99538.84;;;32.90;100.00
5595;BME280;1003;48.002;7.788;2023-08-21T12:51:35;99537.00;;;33.00;100.00
5595;BME280;1003;48.002;7.788;2023-08-21T12:54:04;99540.66;;;32.89;100.00
5595;BME280;1003;48.002;7.788;2023-08-21T12:56:31;99532.44;;;33.02;100.00
5595;BME280;1003;48.002;7.788;2023-08-21T12:58:58;99520.53;;;33.26;100.00
5595;BME280;1003;48.002;7.788;2023-08-21T13:01:26;99526.88;;;33.41;100.00
5595;BME280;1003;48.002;7.788;2023-08-21T13:03:53;99524.41;;;33.39;100.00
5595;BME280;1003;48.002;7.788;2023-08-21T13:06:20;99519.97;;;33.32;100.00
5595;BME280;1003;48.002;7.788;2023-08-21T13:08:47;99519.84;;;33.15;100.00
5595;BME280;1003;48.002;7.788;2023-08-21T13:11:15;99522.03;;;33.02;100.00
5595;BME280;1003;48.002;7.788;2023-08-21T13:13:43;99514.00;;;32.96;100.00
5595;BME280;1003;48.002;7.788;2023-08-21T13:16:10;99514.38;;;33.01;100.00
5595;BME280;1003;48.002;7.788;2023-08-21T13:18:37;99517.78;;;33.01;100.00